Who's Online

We have 5 guests online

GK Weather

An error occured during parsing XML data. Please try again.

Aviation WX

[source: ADDS]
METAR
KIAD 290952Z 33007KT 7SM BKN007 OVC011 22/21 A2984 RMK AO2 RAE08 SLP101 P0001 T02220211 $ =
TAF
KIAD 290857Z 2909/3012 30004KT P6SM -SHRA OVC008 FM291100 35004KT P6SM OVC010 FM291300 34006KT P6SM BKN040 FM300300 00000KT P6SM BKN040 =
SR / SS: 23:53 / 14:03 UTC (Washington-Dulles 2016-07-29)

JoomlaWatch Agent

Home Links
We are regularly out on the Web. When we find a great site we list it.